Time,TemperatureF,DewpointF,PressureIn,WindDirection,WindDirectionDegrees,WindSpeedMPH,WindSpeedGustMPH,Humidity,HourlyPrecipIn,Conditions,Clouds,dailyrainin,SoftwareType,DateUTC
2013-07-31 00:04:00,53.4,50.0,29.28,SSW,202,0.0,0.0,88,0.00,RA,,0.00,WeatherDisplay:10.37,2013-07-30 23:04:00,
2013-07-31 00:09:00,53.4,50.0,29.28,SSW,202,0.0,0.0,88,0.00,RA,,0.00,WeatherDisplay:10.37,2013-07-30 23:09:00,
2013-07-31 00:14:00,53.1,49.6,29.28,WSW,248,2.5,2.5,88,0.00,RA,,0.00,WeatherDisplay:10.37,2013-07-30 23:14:00,
2013-07-31 00:19:00,53.1,49.6,29.29,WSW,248,2.3,2.3,88,0.00,RA,,0.00,WeatherDisplay:10.37,2013-07-30 23:19:00,
2013-07-31 00:24:00,53.1,49.6,29.29,WSW,248,2.3,2.3,88,0.00,RA,,0.00,WeatherDisplay:10.37,2013-07-30 23:24:00,
2013-07-31 00:29:00,53.1,49.6,29.29,WSW,248,2.3,2.3,88,0.00,RA,,0.00,WeatherDisplay:10.37,2013-07-30 23:29:00,
2013-07-31 00:34:00,53.1,49.6,29.29,SSW,202,2.3,2.5,88,0.00,RA,,0.00,WeatherDisplay:10.37,2013-07-30 23:34:00,
2013-07-31 00:39:00,53.1,49.6,29.29,SSW,202,2.3,2.4,88,0.00,CLR,,0.00,WeatherDisplay:10.37,2013-07-30 23:39:00,
2013-07-31 00:44:00,53.1,49.6,29.29,SSW,202,0.0,2.4,88,0.00,CLR,,0.00,WeatherDisplay:10.37,2013-07-30 23:44:00,
2013-07-31 00:49:00,53.1,49.6,29.29,SSW,202,0.0,2.4,88,0.00,CLR,,0.00,WeatherDisplay:10.37,2013-07-30 23:49:00,
2013-07-31 00:54:00,53.1,49.6,29.29,SW,225,0.0,0.0,88,0.00,CLR,,0.00,WeatherDisplay:10.37,2013-07-30 23:54:00,
2013-07-31 00:59:00,53.1,49.6,29.29,SW,225,0.0,0.0,88,0.00,CLR,,0.00,WeatherDisplay:10.37,2013-07-30 23:59:00,
2013-07-31 01:04:00,53.1,49.6,29.29,SW,225,0.0,0.0,88,0.00,CLR,,0.00,WeatherDisplay:10.37,2013-07-31 00:04:00,
2013-07-31 01:09:00,53.1,49.6,29.29,SW,225,0.0,0.0,88,0.00,CLR,,0.00,WeatherDisplay:10.37,2013-07-31 00:09:00,
2013-07-31 01:14:00,52.7,49.2,29.29,West,270,2.0,2.0,88,0.00,CLR,,0.00,WeatherDisplay:10.37,2013-07-31 00:14:00,
2013-07-31 01:19:00,52.7,49.5,29.29,West,270,2.3,2.3,89,0.00,CLR,,0.00,WeatherDisplay:10.37,2013-07-31 00:19:00,
2013-07-31 01:24:00,52.7,49.5,29.29,West,270,2.3,2.3,89,0.00,CLR,,0.00,WeatherDisplay:10.37,2013-07-31 00:24:00,
2013-07-31 01:29:00,52.7,49.5,29.29,West,270,2.3,2.3,89,0.00,CLR,,0.00,WeatherDisplay:10.37,2013-07-31 00:29:00,
2013-07-31 01:34:00,52.7,49.5,29.29,WSW,248,4.7,4.7,89,0.00,CLR,,0.00,WeatherDisplay:10.37,2013-07-31 00:34:00,
2013-07-31 01:39:00,52.7,49.5,29.29,WSW,248,4.6,4.6,89,0.00,CLR,,0.00,WeatherDisplay:10.37,2013-07-31 00:39:00,
2013-07-31 01:44:00,52.7,49.5,29.29,West,270,4.6,4.7,89,0.00,CLR,,0.00,WeatherDisplay:10.37,2013-07-31 00:44:00,
2013-07-31 01:49:00,52.7,49.5,29.29,West,270,4.6,4.6,89,0.00,CLR,,0.00,WeatherDisplay:10.37,2013-07-31 00:49:00,
2013-07-31 01:54:00,52.7,49.5,29.29,West,270,3.5,4.6,89,0.00,CLR,,0.00,WeatherDisplay:10.37,2013-07-31 00:54:00,
2013-07-31 01:59:00,52.0,49.1,29.30,SW,225,3.5,3.5,90,0.00,CLR,,0.00,WeatherDisplay:10.37,2013-07-31 00:59:00,
2013-07-31 02:04:00,52.0,49.1,29.30,SW,225,0.0,1.2,90,0.00,CLR,,0.00,WeatherDisplay:10.37,2013-07-31 01:04:00,
2013-07-31 02:09:00,51.8,49.0,29.30,South,180,2.2,2.2,90,0.00,CLR,,0.00,WeatherDisplay:10.37,2013-07-31 01:09:00,
2013-07-31 02:14:00,51.8,49.0,29.30,South,180,2.3,2.3,90,0.00,CLR,,0.00,WeatherDisplay:10.37,2013-07-31 01:14:00,
2013-07-31 02:19:00,51.8,49.0,29.30,South,180,2.3,2.3,90,0.00,CLR,,0.00,WeatherDisplay:10.37,2013-07-31 01:19:00,
2013-07-31 02:24:00,51.8,49.0,29.30,South,180,2.3,2.3,90,0.00,CLR,,0.00,WeatherDisplay:10.37,2013-07-31 01:24:00,
2013-07-31 02:29:00,51.8,49.0,29.30,SSE,158,2.3,2.3,90,0.00,CLR,,0.00,WeatherDisplay:10.37,2013-07-31 01:29:00,
2013-07-31 02:34:00,51.8,49.0,29.30,SSE,158,2.3,2.3,90,0.00,CLR,,0.00,WeatherDisplay:10.37,2013-07-31 01:34:00,
2013-07-31 02:39:00,51.8,49.0,29.30,SSE,158,0.0,2.2,90,0.00,CLR,,0.00,WeatherDisplay:10.37,2013-07-31 01:39:00,
2013-07-31 02:44:00,51.8,49.0,29.30,SSE,158,0.0,2.2,90,0.00,CLR,,0.00,WeatherDisplay:10.37,2013-07-31 01:44:00,
2013-07-31 02:49:00,51.6,48.8,29.30,South,180,1.3,1.3,90,0.00,CLR,,0.00,WeatherDisplay:10.37,2013-07-31 01:49:00,
2013-07-31 02:54:00,51.6,48.8,29.30,South,180,1.2,1.2,90,0.00,CLR,,0.00,WeatherDisplay:10.37,2013-07-31 01:54:00,
2013-07-31 02:59:00,51.6,48.8,29.30,South,180,1.2,1.2,90,0.00,CLR,,0.00,WeatherDisplay:10.37,2013-07-31 01:59:00,
2013-07-31 03:04:00,51.6,48.8,29.30,South,180,1.2,1.2,90,0.00,CLR,,0.00,WeatherDisplay:10.37,2013-07-31 02:04:00,
2013-07-31 03:09:00,51.6,48.8,29.30,SSW,202,1.2,1.3,90,0.00,CLR,,0.00,WeatherDisplay:10.37,2013-07-31 02:09:00,
2013-07-31 03:14:00,51.6,48.8,29.30,SSW,202,1.2,1.3,90,0.00,CLR,,0.00,WeatherDisplay:10.37,2013-07-31 02:14:00,
2013-07-31 03:19:00,51.6,48.8,29.30,SSW,202,1.2,1.3,90,0.00,CLR,,0.00,WeatherDisplay:10.37,2013-07-31 02:19:00,
2013-07-31 03:24:00,52.0,49.4,29.30,WSW,248,1.6,1.6,91,0.00,CLR,,0.00,WeatherDisplay:10.37,2013-07-31 02:24:00,
2013-07-31 03:29:00,52.0,49.4,29.30,WSW,248,1.2,1.2,91,0.00,CLR,,0.00,WeatherDisplay:10.37,2013-07-31 02:29:00,
2013-07-31 03:34:00,52.0,49.4,29.30,WSW,248,1.2,1.5,91,0.00,CLR,,0.00,WeatherDisplay:10.37,2013-07-31 02:34:00,
2013-07-31 03:39:00,52.3,49.8,29.30,WSW,248,0.0,1.4,91,0.00,CLR,,0.00,WeatherDisplay:10.37,2013-07-31 02:39:00,
2013-07-31 03:44:00,52.3,49.8,29.30,WSW,248,0.0,0.0,91,0.00,CLR,,0.00,WeatherDisplay:10.37,2013-07-31 02:44:00,
2013-07-31 03:49:00,52.3,49.8,29.30,WSW,248,0.0,0.0,91,0.00,CLR,,0.00,WeatherDisplay:10.37,2013-07-31 02:49:00,
2013-07-31 03:54:00,52.3,49.8,29.30,WSW,248,0.0,0.0,91,0.00,CLR,,0.00,WeatherDisplay:10.37,2013-07-31 02:54:00,
2013-07-31 03:59:00,52.7,50.1,29.31,South,180,1.3,1.3,91,0.00,CLR,,0.00,WeatherDisplay:10.37,2013-07-31 02:59:00,
2013-07-31 04:04:00,52.7,50.1,29.31,South,180,1.2,1.2,91,0.00,CLR,,0.00,WeatherDisplay:10.37,2013-07-31 03:04:00,
2013-07-31 04:09:00,52.7,50.1,29.31,SW,225,1.2,1.3,91,0.00,CLR,,0.00,WeatherDisplay:10.37,2013-07-31 03:09:00,
2013-07-31 04:14:00,52.7,50.1,29.31,SW,225,1.2,1.3,91,0.00,CLR,,0.00,WeatherDisplay:10.37,2013-07-31 03:14:00,
2013-07-31 04:19:00,52.7,50.1,29.31,SW,225,3.5,0.0,91,0.00,CLR,,0.00,WeatherDisplay:10.37,2013-07-31 03:19:00,
2013-07-31 04:24:00,52.7,50.1,29.31,SW,225,3.5,0.0,91,0.00,CLR,,0.00,WeatherDisplay:10.37,2013-07-31 03:24:00,
2013-07-31 04:29:00,52.7,50.1,29.31,SSW,202,3.5,3.5,91,0.00,CLR,,0.00,WeatherDisplay:10.37,2013-07-31 03:29:00,
2013-07-31 04:34:00,52.7,50.1,29.31,SSW,202,3.5,3.5,91,0.00,CLR,,0.00,WeatherDisplay:10.37,2013-07-31 03:34:00,
2013-07-31 04:39:00,52.7,50.1,29.31,SW,225,4.6,4.6,91,0.00,CLR,,0.00,WeatherDisplay:10.37,2013-07-31 03:39:00,
2013-07-31 04:44:00,52.7,50.1,29.31,SW,225,4.6,4.6,91,0.00,CLR,,0.00,WeatherDisplay:10.37,2013-07-31 03:44:00,
2013-07-31 04:49:00,52.7,50.1,29.31,SW,225,0.0,0.4,91,0.00,CLR,,0.00,WeatherDisplay:10.37,2013-07-31 03:49:00,
2013-07-31 04:54:00,52.7,50.1,29.31,SW,225,0.0,0.4,91,0.00,CLR,,0.00,WeatherDisplay:10.37,2013-07-31 03:54:00,
2013-07-31 04:59:00,52.7,50.1,29.31,SW,225,0.0,0.4,91,0.00,CLR,,0.00,WeatherDisplay:10.37,2013-07-31 03:59:00,
2013-07-31 05:01:00,52.7,50.1,29.31,SW,225,0.0,0.4,91,0.00,CLR,,0.00,WeatherDisplay:10.37,2013-07-31 04:01:00,
2013-07-31 05:02:00,52.7,50.1,29.31,SW,225,0.0,0.4,91,0.00,CLR,,0.00,WeatherDisplay:10.37,2013-07-31 04:02:00,
2013-07-31 05:07:00,52.7,50.1,29.31,SW,225,0.0,0.4,91,0.00,CLR,,0.00,WeatherDisplay:10.37,2013-07-31 04:07:00,
2013-07-31 05:12:00,52.7,50.1,29.31,SW,225,1.2,1.2,91,0.00,CLR,,0.00,WeatherDisplay:10.37,2013-07-31 04:12:00,
2013-07-31 05:17:00,52.7,50.1,29.31,SW,225,1.2,1.2,91,0.00,CLR,,0.00,WeatherDisplay:10.37,2013-07-31 04:17:00,
2013-07-31 05:22:00,52.7,50.1,29.31,WSW,248,2.3,2.3,91,0.00,CLR,,0.00,WeatherDisplay:10.37,2013-07-31 04:22:00,
2013-07-31 05:27:00,52.7,50.1,29.31,WSW,248,2.3,2.3,91,0.00,CLR,,0.00,WeatherDisplay:10.37,2013-07-31 04:27:00,
2013-07-31 05:32:00,51.6,49.1,29.31,WSW,248,2.3,2.3,91,0.00,CLR,,0.00,WeatherDisplay:10.37,2013-07-31 04:32:00,
2013-07-31 05:37:00,51.6,49.1,29.31,WSW,248,2.3,2.3,91,0.00,CLR,,0.00,WeatherDisplay:10.37,2013-07-31 04:37:00,
2013-07-31 05:42:00,51.6,49.1,29.31,WSW,248,0.0,1.5,91,0.00,CLR,,0.00,WeatherDisplay:10.37,2013-07-31 04:42:00,
2013-07-31 05:47:00,51.6,49.1,29.31,WSW,248,0.0,1.5,91,0.00,CLR,,0.00,WeatherDisplay:10.37,2013-07-31 04:47:00,
2013-07-31 05:52:00,51.6,49.1,29.31,South,180,2.3,2.3,91,0.00,CLR,,0.00,WeatherDisplay:10.37,2013-07-31 04:52:00,
2013-07-31 05:57:00,51.6,49.1,29.31,South,180,2.3,2.3,91,0.00,CLR,,0.00,WeatherDisplay:10.37,2013-07-31 04:57:00,
2013-07-31 06:02:00,51.6,49.1,29.31,South,180,2.3,2.3,91,0.00,CLR,,0.00,WeatherDisplay:10.37,2013-07-31 05:02:00,
2013-07-31 06:07:00,51.6,49.1,29.31,South,180,2.3,2.3,91,0.00,CLR,,0.00,WeatherDisplay:10.37,2013-07-31 05:07:00,
2013-07-31 06:12:00,51.6,49.1,29.31,South,180,2.3,2.3,91,0.00,CLR,,0.00,WeatherDisplay:10.37,2013-07-31 05:12:00,
2013-07-31 06:17:00,51.6,49.1,29.31,South,180,2.3,2.3,91,0.00,CLR,,0.00,WeatherDisplay:10.37,2013-07-31 05:17:00,
2013-07-31 06:22:00,51.3,48.7,29.33,SW,225,2.3,2.3,91,0.00,CLR,,0.00,WeatherDisplay:10.37,2013-07-31 05:22:00,
2013-07-31 06:27:00,51.3,48.7,29.33,SW,225,2.3,2.3,91,0.00,CLR,,0.00,WeatherDisplay:10.37,2013-07-31 05:27:00,
2013-07-31 06:32:00,51.3,48.7,29.33,SW,225,1.2,2.2,91,0.00,CLR,,0.00,WeatherDisplay:10.37,2013-07-31 05:32:00,
2013-07-31 06:37:00,51.3,48.7,29.33,SW,225,1.2,2.2,91,0.00,CLR,,0.00,WeatherDisplay:10.37,2013-07-31 05:37:00,
2013-07-31 06:42:00,51.3,48.7,29.33,SW,225,1.2,2.2,91,0.00,CLR,,0.00,WeatherDisplay:10.37,2013-07-31 05:42:00,
2013-07-31 06:47:00,51.3,48.7,29.33,SW,225,1.2,2.2,91,0.00,CLR,,0.00,WeatherDisplay:10.37,2013-07-31 05:47:00,
2013-07-31 06:52:00,51.4,48.9,29.33,SW,225,2.3,2.3,91,0.00,CLR,,0.00,WeatherDisplay:10.37,2013-07-31 05:52:00,
2013-07-31 06:57:00,51.4,48.9,29.33,SW,225,2.3,2.3,91,0.00,CLR,,0.00,WeatherDisplay:10.37,2013-07-31 05:57:00,
2013-07-31 07:02:00,51.4,48.9,29.33,South,180,5.8,5.8,91,0.00,CLR,,0.00,WeatherDisplay:10.37,2013-07-31 06:02:00,
2013-07-31 07:07:00,51.4,48.9,29.33,South,180,5.8,5.8,91,0.00,CLR,,0.00,WeatherDisplay:10.37,2013-07-31 06:07:00,
2013-07-31 07:12:00,51.4,49.2,29.33,SSE,158,5.8,5.8,92,0.00,CLR,,0.00,WeatherDisplay:10.37,2013-07-31 06:12:00,
2013-07-31 07:17:00,51.4,49.2,29.33,SSE,158,5.8,5.8,92,0.00,CLR,,0.00,WeatherDisplay:10.37,2013-07-31 06:17:00,
2013-07-31 07:22:00,51.4,49.2,29.33,NNW,338,2.3,2.3,92,0.00,CLR,,0.00,WeatherDisplay:10.37,2013-07-31 06:22:00,
2013-07-31 07:27:00,51.4,49.2,29.33,NNW,338,2.3,2.3,92,0.00,CLR,,0.00,WeatherDisplay:10.37,2013-07-31 06:27:00,
2013-07-31 07:32:00,51.4,49.2,29.33,NNW,338,0.0,2.1,92,0.00,CLR,,0.00,WeatherDisplay:10.37,2013-07-31 06:32:00,
2013-07-31 07:37:00,51.4,49.2,29.33,NNW,338,0.0,2.1,92,0.00,CLR,,0.00,WeatherDisplay:10.37,2013-07-31 06:37:00,
2013-07-31 07:42:00,51.8,49.5,29.35,South,180,1.2,1.2,92,0.00,CLR,,0.00,WeatherDisplay:10.37,2013-07-31 06:42:00,
2013-07-31 07:47:00,51.8,49.5,29.35,South,180,1.2,1.2,92,0.00,CLR,,0.00,WeatherDisplay:10.37,2013-07-31 06:47:00,
2013-07-31 07:52:00,51.8,49.5,29.35,SE,135,1.2,1.4,92,0.00,CLR,,0.00,WeatherDisplay:10.37,2013-07-31 06:52:00,
2013-07-31 07:57:00,51.8,49.5,29.35,SE,135,1.2,1.4,92,0.00,CLR,,0.00,WeatherDisplay:10.37,2013-07-31 06:57:00,
2013-07-31 08:02:00,52.3,50.1,29.35,West,270,6.9,6.9,92,0.00,CLR,,0.00,WeatherDisplay:10.37,2013-07-31 07:02:00,
2013-07-31 08:07:00,52.3,50.1,29.35,West,270,6.9,6.9,92,0.00,CLR,,0.00,WeatherDisplay:10.37,2013-07-31 07:07:00,
2013-07-31 08:12:00,52.3,50.1,29.35,SE,135,6.9,7.2,92,0.00,CLR,,0.00,WeatherDisplay:10.37,2013-07-31 07:12:00,
2013-07-31 08:17:00,52.3,50.1,29.35,SE,135,6.9,7.2,92,0.00,CLR,,0.00,WeatherDisplay:10.37,2013-07-31 07:17:00,
2013-07-31 08:22:00,52.3,50.1,29.35,SSW,202,5.8,5.8,92,0.00,CLR,,0.00,WeatherDisplay:10.37,2013-07-31 07:22:00,
2013-07-31 08:27:00,52.3,50.1,29.35,SSW,202,5.8,5.8,92,0.00,CLR,,0.00,WeatherDisplay:10.37,2013-07-31 07:27:00,
2013-07-31 08:32:00,52.3,50.1,29.35,SSW,202,5.8,5.8,92,0.00,CLR,,0.00,WeatherDisplay:10.37,2013-07-31 07:32:00,
2013-07-31 08:37:00,52.3,50.1,29.35,SSW,202,5.8,5.8,92,0.00,CLR,,0.00,WeatherDisplay:10.37,2013-07-31 07:37:00,
2013-07-31 08:42:00,52.3,50.1,29.35,SSW,202,5.8,6.3,92,0.00,CLR,,0.00,WeatherDisplay:10.37,2013-07-31 07:42:00,
2013-07-31 08:47:00,52.3,50.1,29.35,SSW,202,5.8,6.3,92,0.00,CLR,,0.00,WeatherDisplay:10.37,2013-07-31 07:47:00,
2013-07-31 08:52:00,54.3,51.7,29.35,SW,225,3.5,3.5,91,0.00,CLR,,0.00,WeatherDisplay:10.37,2013-07-31 07:52:00,
2013-07-31 08:57:00,54.3,51.7,29.35,SW,225,3.5,3.5,91,0.00,CLR,,0.00,WeatherDisplay:10.37,2013-07-31 07:57:00,
2013-07-31 09:02:00,54.9,52.3,29.35,SW,225,3.5,3.5,91,0.00,CLR,,0.00,WeatherDisplay:10.37,2013-07-31 08:02:00,
2013-07-31 09:07:00,54.9,52.3,29.35,SW,225,3.5,3.5,91,0.00,CLR,,0.00,WeatherDisplay:10.37,2013-07-31 08:07:00,
2013-07-31 09:12:00,55.6,53.0,29.35,WSW,248,2.3,2.3,91,0.00,CLR,,0.00,WeatherDisplay:10.37,2013-07-31 08:12:00,
2013-07-31 09:17:00,55.6,53.0,29.35,WSW,248,2.3,2.3,91,0.00,CLR,,0.00,WeatherDisplay:10.37,2013-07-31 08:17:00,
2013-07-31 09:22:00,55.6,53.0,29.35,WSW,248,2.3,2.3,91,0.00,CLR,,0.00,WeatherDisplay:10.37,2013-07-31 08:22:00,
2013-07-31 09:27:00,55.6,53.0,29.35,WSW,248,2.3,2.3,91,0.00,CLR,,0.00,WeatherDisplay:10.37,2013-07-31 08:27:00,
2013-07-31 09:32:00,55.6,53.0,29.35,WSW,248,2.3,2.3,91,0.00,CLR,,0.00,WeatherDisplay:10.37,2013-07-31 08:32:00,
2013-07-31 09:37:00,55.6,53.0,29.35,WSW,248,2.3,2.3,91,0.00,CLR,,0.00,WeatherDisplay:10.37,2013-07-31 08:37:00,
2013-07-31 09:42:00,58.1,54.2,29.36,SW,225,2.3,2.3,87,0.00,CLR,,0.00,WeatherDisplay:10.37,2013-07-31 08:42:00,
2013-07-31 09:48:00,58.1,54.2,29.36,SW,225,2.3,2.3,87,0.00,CLR,,0.00,WeatherDisplay:10.37,2013-07-31 08:48:00,
2013-07-31 09:53:00,58.1,54.2,29.36,SW,225,2.3,2.3,87,0.00,CLR,,0.00,WeatherDisplay:10.37,2013-07-31 08:53:00,
2013-07-31 09:58:00,58.1,54.2,29.36,SW,225,2.3,2.3,87,0.00,CLR,,0.00,WeatherDisplay:10.37,2013-07-31 08:58:00,
2013-07-31 10:03:00,62.4,58.5,29.36,WSW,248,2.3,2.3,87,0.00,CLR,,0.00,WeatherDisplay:10.37,2013-07-31 09:03:00,
2013-07-31 10:08:00,62.4,58.5,29.36,WSW,248,2.3,2.3,87,0.00,CLR,,0.00,WeatherDisplay:10.37,2013-07-31 09:08:00,
2013-07-31 10:13:00,62.4,58.5,29.36,SSW,202,0.0,0.0,87,0.00,CLR,,0.00,WeatherDisplay:10.37,2013-07-31 09:13:00,
2013-07-31 10:18:00,62.4,58.5,29.36,SSW,202,0.0,0.0,87,0.00,CLR,,0.00,WeatherDisplay:10.37,2013-07-31 09:18:00,
2013-07-31 10:23:00,62.4,58.5,29.36,SSW,202,0.0,0.0,87,0.00,CLR,,0.00,WeatherDisplay:10.37,2013-07-31 09:23:00,
2013-07-31 10:28:00,62.4,58.5,29.36,SSW,202,0.0,0.0,87,0.00,CLR,,0.00,WeatherDisplay:10.37,2013-07-31 09:28:00,
2013-07-31 10:33:00,64.8,60.8,29.36,WSW,248,2.3,2.3,87,0.00,CLR,,0.00,WeatherDisplay:10.37,2013-07-31 09:33:00,
2013-07-31 10:38:00,64.8,60.8,29.36,WSW,248,2.3,2.3,87,0.00,CLR,,0.00,WeatherDisplay:10.37,2013-07-31 09:38:00,
2013-07-31 10:43:00,64.8,60.8,29.36,WSW,248,2.3,2.3,87,0.00,CLR,,0.00,WeatherDisplay:10.37,2013-07-31 09:43:00,
2013-07-31 10:48:00,64.8,60.8,29.36,WSW,248,2.3,2.3,87,0.00,CLR,,0.00,WeatherDisplay:10.37,2013-07-31 09:48:00,
2013-07-31 10:53:00,64.8,60.8,29.36,SSW,202,2.3,2.3,87,0.00,CLR,,0.00,WeatherDisplay:10.37,2013-07-31 09:53:00,
2013-07-31 10:58:00,64.8,60.8,29.36,SSW,202,2.3,2.3,87,0.00,CLR,,0.00,WeatherDisplay:10.37,2013-07-31 09:58:00,
2013-07-31 11:03:00,64.8,60.8,29.36,SSW,202,2.3,2.3,87,0.00,CLR,,0.00,WeatherDisplay:10.37,2013-07-31 10:03:00,
2013-07-31 11:08:00,64.8,60.8,29.36,SSW,202,2.3,2.3,87,0.00,CLR,,0.00,WeatherDisplay:10.37,2013-07-31 10:08:00,
2013-07-31 11:13:00,64.8,60.8,29.36,East,90,2.3,2.7,87,0.00,CLR,,0.00,WeatherDisplay:10.37,2013-07-31 10:13:00,
2013-07-31 11:18:00,64.8,60.8,29.36,East,90,2.3,2.7,87,0.00,CLR,,0.00,WeatherDisplay:10.37,2013-07-31 10:18:00,
2013-07-31 11:23:00,64.8,60.8,29.36,East,90,0.0,2.7,87,0.00,CLR,,0.00,WeatherDisplay:10.37,2013-07-31 10:23:00,
2013-07-31 11:28:00,64.8,60.8,29.36,East,90,0.0,2.7,87,0.00,CLR,,0.00,WeatherDisplay:10.37,2013-07-31 10:28:00,
2013-07-31 11:33:00,62.4,53.3,29.37,SSW,202,6.7,6.7,72,0.00,CLR,,0.00,WeatherDisplay:10.37,2013-07-31 10:33:00,
2013-07-31 11:38:00,62.4,53.3,29.37,SSW,202,6.9,6.9,72,0.00,CLR,,0.00,WeatherDisplay:10.37,2013-07-31 10:38:00,
2013-07-31 11:43:00,63.0,53.8,29.37,SSE,158,6.9,6.9,72,0.00,CLR,,0.00,WeatherDisplay:10.37,2013-07-31 10:43:00,
2013-07-31 11:48:00,63.0,53.8,29.37,SSE,158,6.9,6.9,72,0.00,CLR,,0.00,WeatherDisplay:10.37,2013-07-31 10:48:00,
2013-07-31 11:53:00,63.0,53.8,29.37,SSW,202,3.4,3.4,72,0.00,CLR,,0.00,WeatherDisplay:10.37,2013-07-31 10:53:00,
2013-07-31 11:58:00,63.3,54.1,29.37,SSW,202,3.5,3.5,72,0.00,CLR,,0.00,WeatherDisplay:10.37,2013-07-31 10:58:00,
2013-07-31 12:03:00,63.3,54.1,29.37,South,180,3.5,3.5,72,0.00,CLR,,0.00,WeatherDisplay:10.37,2013-07-31 11:03:00,
2013-07-31 12:08:00,63.3,54.1,29.37,South,180,3.5,3.5,72,0.00,CLR,,0.00,WeatherDisplay:10.37,2013-07-31 11:08:00,
2013-07-31 12:13:00,63.3,54.1,29.37,South,180,3.5,3.5,72,0.00,CLR,,0.00,WeatherDisplay:10.37,2013-07-31 11:13:00,
2013-07-31 12:18:00,63.3,54.1,29.37,South,180,3.5,3.5,72,0.00,CLR,,0.00,WeatherDisplay:10.37,2013-07-31 11:18:00,
2013-07-31 12:23:00,63.3,54.1,29.37,NNW,338,3.5,3.5,72,0.00,CLR,,0.00,WeatherDisplay:10.37,2013-07-31 11:23:00,
2013-07-31 12:28:00,63.7,54.5,29.37,NNW,338,3.5,3.5,72,0.00,CLR,,0.00,WeatherDisplay:10.37,2013-07-31 11:28:00,
2013-07-31 12:33:00,63.7,54.5,29.37,NNW,338,3.5,3.5,72,0.00,CLR,,0.00,WeatherDisplay:10.37,2013-07-31 11:33:00,
2013-07-31 12:38:00,63.7,54.5,29.37,NNW,338,0.0,2.9,72,0.00,CLR,,0.00,WeatherDisplay:10.37,2013-07-31 11:38:00,
2013-07-31 12:43:00,63.7,54.5,29.37,NNW,338,0.0,2.9,72,0.00,CLR,,0.00,WeatherDisplay:10.37,2013-07-31 11:43:00,
2013-07-31 12:48:00,63.7,54.5,29.37,NNW,338,0.0,2.9,72,0.00,CLR,,0.00,WeatherDisplay:10.37,2013-07-31 11:48:00,
2013-07-31 12:53:00,63.5,53.5,29.36,West,270,2.3,2.3,70,0.00,CLR,,0.00,WeatherDisplay:10.37,2013-07-31 11:53:00,
2013-07-31 12:58:00,63.5,53.5,29.36,West,270,2.3,2.3,70,0.00,CLR,,0.00,WeatherDisplay:10.37,2013-07-31 11:58:00,
2013-07-31 13:03:00,63.5,53.5,29.36,West,270,2.3,2.3,70,0.00,CLR,,0.00,WeatherDisplay:10.37,2013-07-31 12:03:00,
2013-07-31 13:08:00,63.5,53.5,29.36,West,270,2.3,2.3,70,0.00,CLR,,0.00,WeatherDisplay:10.37,2013-07-31 12:08:00,
2013-07-31 13:13:00,66.0,54.7,29.35,SSW,202,6.9,6.9,67,0.00,CLR,,0.00,WeatherDisplay:10.37,2013-07-31 12:13:00,
2013-07-31 13:18:00,66.0,54.7,29.35,SSW,202,6.9,6.9,67,0.00,CLR,,0.00,WeatherDisplay:10.37,2013-07-31 12:18:00,
2013-07-31 13:23:00,66.0,54.7,29.35,WSW,248,6.9,6.9,67,0.00,CLR,,0.00,WeatherDisplay:10.37,2013-07-31 12:23:00,
2013-07-31 13:28:00,66.0,54.7,29.35,WSW,248,6.9,6.9,67,0.00,CLR,,0.00,WeatherDisplay:10.37,2013-07-31 12:28:00,
2013-07-31 13:33:00,67.3,55.9,29.35,NNE,22,11.5,11.5,67,0.00,CLR,,0.00,WeatherDisplay:10.37,2013-07-31 12:33:00,
2013-07-31 13:38:00,67.1,54.1,29.35,SW,225,3.5,3.5,63,0.00,CLR,,0.00,WeatherDisplay:10.37,2013-07-31 12:38:00,
2013-07-31 13:43:00,66.9,53.9,29.35,SE,135,1.2,1.6,63,0.00,CLR,,0.00,WeatherDisplay:10.37,2013-07-31 12:43:00,
2013-07-31 13:48:00,66.9,53.9,29.36,SSW,202,3.5,3.5,63,0.00,CLR,,0.00,WeatherDisplay:10.37,2013-07-31 12:48:00,
2013-07-31 13:53:00,66.9,53.9,29.35,WSW,248,4.6,5.2,63,0.00,CLR,,0.00,WeatherDisplay:10.37,2013-07-31 12:53:00,
2013-07-31 13:58:00,66.7,53.7,29.35,SSW,202,2.3,2.5,63,0.00,CLR,,0.00,WeatherDisplay:10.37,2013-07-31 12:58:00,
2013-07-31 14:03:00,66.7,53.7,29.36,SW,225,4.6,8.2,63,0.00,CLR,,0.00,WeatherDisplay:10.37,2013-07-31 13:03:00,
2013-07-31 14:08:00,66.4,52.5,29.36,SE,135,4.6,4.6,61,0.00,CLR,,0.00,WeatherDisplay:10.37,2013-07-31 13:08:00,
2013-07-31 14:13:00,66.2,52.3,29.36,SSW,202,1.2,1.2,61,0.00,CLR,,0.00,WeatherDisplay:10.37,2013-07-31 13:13:00,
2013-07-31 14:18:00,66.4,53.0,29.36,West,270,9.2,9.2,62,0.00,CLR,,0.00,WeatherDisplay:10.37,2013-07-31 13:18:00,
2013-07-31 14:23:00,66.4,53.4,29.36,SSE,158,3.5,3.5,63,0.00,CLR,,0.00,WeatherDisplay:10.37,2013-07-31 13:23:00,
2013-07-31 14:28:00,66.4,53.4,29.36,SW,225,3.5,3.6,63,0.00,CLR,,0.00,WeatherDisplay:10.37,2013-07-31 13:28:00,
2013-07-31 14:33:00,66.4,53.0,29.36,WSW,248,3.5,3.5,62,0.00,CLR,,0.00,WeatherDisplay:10.37,2013-07-31 13:33:00,
2013-07-31 14:38:00,66.0,52.2,29.36,SSW,202,3.5,3.5,61,0.00,CLR,,0.00,WeatherDisplay:10.37,2013-07-31 13:38:00,
2013-07-31 14:43:00,66.0,52.2,29.36,SW,225,5.8,5.8,61,0.00,CLR,,0.00,WeatherDisplay:10.37,2013-07-31 13:43:00,
2013-07-31 14:48:00,65.5,51.7,29.35,SSE,158,8.1,8.1,61,0.00,CLR,,0.00,WeatherDisplay:10.37,2013-07-31 13:48:00,
2013-07-31 14:53:00,65.5,52.1,29.35,South,180,0.0,4.1,62,0.00,CLR,,0.00,WeatherDisplay:10.37,2013-07-31 13:53:00,
2013-07-31 14:58:00,65.5,52.5,29.35,SSW,202,1.2,1.2,63,0.00,CLR,,0.00,WeatherDisplay:10.37,2013-07-31 13:58:00,
2013-07-31 15:03:00,65.3,52.4,29.35,SW,225,5.8,5.8,63,0.00,CLR,,0.00,WeatherDisplay:10.37,2013-07-31 14:03:00,
2013-07-31 15:08:00,65.5,52.5,29.34,SW,225,2.3,2.4,63,0.00,CLR,,0.00,WeatherDisplay:10.37,2013-07-31 14:08:00,
2013-07-31 15:13:00,65.3,52.4,29.34,East,90,1.2,1.2,63,0.00,CLR,,0.00,WeatherDisplay:10.37,2013-07-31 14:13:00,
2013-07-31 15:18:00,65.3,52.8,29.34,South,180,2.3,2.3,64,0.00,CLR,,0.00,WeatherDisplay:10.37,2013-07-31 14:18:00,
2013-07-31 15:23:00,65.3,52.8,29.34,SW,225,1.2,1.7,64,0.00,CLR,,0.00,WeatherDisplay:10.37,2013-07-31 14:23:00,
2013-07-31 15:28:00,65.1,52.6,29.34,SSW,202,4.6,4.6,64,0.00,CLR,,0.00,WeatherDisplay:10.37,2013-07-31 14:28:00,
2013-07-31 15:33:00,65.1,52.6,29.34,SSE,158,2.3,3.3,64,0.00,CLR,,0.00,WeatherDisplay:10.37,2013-07-31 14:33:00,
2013-07-31 15:38:00,65.1,52.6,29.34,SSE,158,2.3,2.3,64,0.00,CLR,,0.00,WeatherDisplay:10.37,2013-07-31 14:38:00,
2013-07-31 15:43:00,65.1,52.6,29.34,SE,135,2.3,2.3,64,0.00,CLR,,0.00,WeatherDisplay:10.37,2013-07-31 14:43:00,
2013-07-31 15:48:00,64.9,52.5,29.34,SSE,158,2.3,2.3,64,0.00,CLR,,0.00,WeatherDisplay:10.37,2013-07-31 14:48:00,
2013-07-31 15:53:00,64.8,52.3,29.34,SSW,202,0.0,2.1,64,0.00,CLR,,0.00,WeatherDisplay:10.37,2013-07-31 14:53:00,
2013-07-31 15:58:00,64.6,52.1,29.34,WSW,248,2.3,2.5,64,0.00,CLR,,0.00,WeatherDisplay:10.37,2013-07-31 14:58:00,
2013-07-31 16:03:00,64.6,52.1,29.33,SW,225,2.3,2.3,64,0.00,CLR,,0.00,WeatherDisplay:10.37,2013-07-31 15:03:00,
2013-07-31 16:08:00,64.2,52.2,29.33,West,270,0.0,0.0,65,0.00,CLR,,0.00,WeatherDisplay:10.37,2013-07-31 15:08:00,
2013-07-31 16:13:00,64.2,52.2,29.33,South,180,4.6,4.6,65,0.00,CLR,,0.00,WeatherDisplay:10.37,2013-07-31 15:13:00,
2013-07-31 16:18:00,64.0,52.0,29.33,SSW,202,4.6,4.6,65,0.00,CLR,,0.00,WeatherDisplay:10.37,2013-07-31 15:18:00,
2013-07-31 16:23:00,63.9,51.9,29.33,SSE,158,3.5,3.5,65,0.00,CLR,,0.00,WeatherDisplay:10.37,2013-07-31 15:23:00,
2013-07-31 16:28:00,63.7,52.1,29.33,SSE,158,0.0,0.0,66,0.00,CLR,,0.00,WeatherDisplay:10.37,2013-07-31 15:28:00,
2013-07-31 16:33:00,63.3,51.8,29.33,SSE,158,3.5,3.5,66,0.00,CLR,,0.00,WeatherDisplay:10.37,2013-07-31 15:33:00,
2013-07-31 16:38:00,63.1,51.6,29.33,South,180,2.3,2.4,66,0.00,CLR,,0.00,WeatherDisplay:10.37,2013-07-31 15:38:00,
2013-07-31 16:43:00,63.0,51.4,29.33,ESE,112,1.2,1.2,66,0.00,CLR,,0.00,WeatherDisplay:10.37,2013-07-31 15:43:00,
2013-07-31 16:48:00,62.8,51.7,29.33,ESE,112,1.2,1.2,67,0.00,CLR,,0.00,WeatherDisplay:10.37,2013-07-31 15:48:00,
2013-07-31 16:53:00,62.8,52.1,29.33,South,180,2.3,2.3,68,0.00,CLR,,0.00,WeatherDisplay:10.37,2013-07-31 15:53:00,
2013-07-31 16:58:00,62.6,51.9,29.33,South,180,1.2,1.2,68,0.00,CLR,,0.00,WeatherDisplay:10.37,2013-07-31 15:58:00,
2013-07-31 17:03:00,62.4,51.7,29.33,SSE,158,0.0,1.5,68,0.00,CLR,,0.00,WeatherDisplay:10.37,2013-07-31 16:03:00,
2013-07-31 17:08:00,62.4,51.7,29.32,SSE,158,2.3,2.3,68,0.00,CLR,,0.00,WeatherDisplay:10.37,2013-07-31 16:08:00,
2013-07-31 17:13:00,62.4,51.7,29.32,SE,135,2.3,2.4,68,0.00,CLR,,0.00,WeatherDisplay:10.37,2013-07-31 16:13:00,
2013-07-31 17:18:00,62.6,51.9,29.32,SE,135,0.0,0.0,68,0.00,CLR,,0.00,WeatherDisplay:10.37,2013-07-31 16:18:00,
2013-07-31 17:23:00,62.4,51.7,29.32,South,180,2.3,2.3,68,0.00,CLR,,0.00,WeatherDisplay:10.37,2013-07-31 16:23:00,
2013-07-31 17:28:00,62.8,52.5,29.32,SSE,158,2.3,2.4,69,0.00,CLR,,0.00,WeatherDisplay:10.37,2013-07-31 16:28:00,
2013-07-31 17:33:00,62.8,52.5,29.32,SE,135,1.2,2.1,69,0.00,CLR,,0.00,WeatherDisplay:10.37,2013-07-31 16:33:00,
2013-07-31 17:38:00,62.8,52.5,29.32,SSE,158,2.3,2.3,69,0.00,CLR,,0.00,WeatherDisplay:10.37,2013-07-31 16:38:00,
2013-07-31 17:43:00,62.8,52.1,29.32,ENE,68,1.2,2.7,68,0.00,CLR,,0.00,WeatherDisplay:10.37,2013-07-31 16:43:00,
2013-07-31 17:48:00,62.4,51.7,29.32,SE,135,2.3,2.3,68,0.00,CLR,,0.00,WeatherDisplay:10.37,2013-07-31 16:48:00,
2013-07-31 17:53:00,62.4,51.7,29.31,SE,135,3.5,3.5,68,0.00,CLR,,0.00,WeatherDisplay:10.37,2013-07-31 16:53:00,
2013-07-31 17:58:00,62.2,51.5,29.31,SE,135,4.6,0.0,68,0.00,CLR,,0.00,WeatherDisplay:10.37,2013-07-31 16:58:00,
2013-07-31 18:03:00,62.2,51.5,29.31,SSE,158,1.2,3.9,68,0.00,CLR,,0.00,WeatherDisplay:10.37,2013-07-31 17:03:00,
2013-07-31 18:08:00,61.9,51.2,29.31,SE,135,1.2,1.2,68,0.00,CLR,,0.00,WeatherDisplay:10.37,2013-07-31 17:08:00,
2013-07-31 18:13:00,61.7,51.0,29.31,East,90,2.3,2.3,68,0.00,CLR,,0.00,WeatherDisplay:10.37,2013-07-31 17:13:00,
2013-07-31 18:18:00,61.7,51.0,29.31,ESE,112,1.2,1.2,68,0.00,CLR,,0.00,WeatherDisplay:10.37,2013-07-31 17:18:00,
2013-07-31 18:23:00,61.7,51.4,29.31,SE,135,1.2,2.1,69,0.00,CLR,,0.00,WeatherDisplay:10.37,2013-07-31 17:23:00,
2013-07-31 18:28:00,61.7,51.4,29.31,SE,135,3.5,3.5,69,0.00,CLR,,0.00,WeatherDisplay:10.37,2013-07-31 17:28:00,
2013-07-31 18:33:00,61.7,51.8,29.31,ESE,112,3.5,4.0,70,0.00,CLR,,0.00,WeatherDisplay:10.37,2013-07-31 17:33:00,
2013-07-31 18:38:00,61.3,51.5,29.30,East,90,2.3,2.3,70,0.00,CLR,,0.00,WeatherDisplay:10.37,2013-07-31 17:38:00,
2013-07-31 18:43:00,61.0,51.1,29.30,ESE,112,0.0,1.3,70,0.00,CLR,,0.00,WeatherDisplay:10.37,2013-07-31 17:43:00,
2013-07-31 18:48:00,60.6,51.5,29.30,East,90,2.3,2.3,72,0.00,CLR,,0.00,WeatherDisplay:10.37,2013-07-31 17:48:00,
2013-07-31 18:53:00,60.3,51.6,29.30,SE,135,2.3,2.3,73,0.00,CLR,,0.00,WeatherDisplay:10.37,2013-07-31 17:53:00,
2013-07-31 18:58:00,59.9,51.2,29.30,ESE,112,2.3,2.7,73,0.00,CLR,,0.00,WeatherDisplay:10.37,2013-07-31 17:58:00,
2013-07-31 19:03:00,59.7,51.0,29.30,ESE,112,1.2,1.6,73,0.00,CLR,,0.00,WeatherDisplay:10.37,2013-07-31 18:03:00,
2013-07-31 19:08:00,59.5,51.6,29.30,SE,135,1.2,1.5,75,0.02,RA,,0.02,WeatherDisplay:10.37,2013-07-31 18:08:00,
2013-07-31 19:13:00,59.5,51.6,29.30,ESE,112,2.3,2.3,75,0.02,RA,,0.02,WeatherDisplay:10.37,2013-07-31 18:13:00,
2013-07-31 19:18:00,59.4,51.4,29.30,SE,135,3.5,3.5,75,0.02,CLR,,0.02,WeatherDisplay:10.37,2013-07-31 18:18:00,
2013-07-31 19:23:00,58.8,51.6,29.30,SE,135,2.3,2.7,77,0.02,CLR,,0.02,WeatherDisplay:10.37,2013-07-31 18:23:00,
2013-07-31 19:28:00,58.8,52.0,29.29,ESE,112,2.3,2.3,78,0.02,CLR,,0.02,WeatherDisplay:10.37,2013-07-31 18:28:00,
2013-07-31 19:33:00,58.6,51.8,29.29,East,90,2.3,2.3,78,0.02,CLR,,0.02,WeatherDisplay:10.37,2013-07-31 18:33:00,
2013-07-31 19:38:00,58.6,51.8,29.29,East,90,1.2,1.2,78,0.02,CLR,,0.02,WeatherDisplay:10.37,2013-07-31 18:38:00,
2013-07-31 19:43:00,58.6,52.1,29.29,SE,135,1.2,1.2,79,0.02,CLR,,0.02,WeatherDisplay:10.37,2013-07-31 18:43:00,
2013-07-31 19:48:00,58.6,52.1,29.29,East,90,0.0,0.0,79,0.02,CLR,,0.02,WeatherDisplay:10.37,2013-07-31 18:48:00,
2013-07-31 19:53:00,58.3,51.8,29.29,NE,45,0.0,0.0,79,0.02,CLR,,0.02,WeatherDisplay:10.37,2013-07-31 18:53:00,
2013-07-31 19:58:00,58.6,52.1,29.30,NNE,22,1.2,1.2,79,0.02,CLR,,0.02,WeatherDisplay:10.37,2013-07-31 18:58:00,
2013-07-31 20:03:00,58.6,52.1,29.30,NNE,22,0.0,0.0,79,0.02,CLR,,0.02,WeatherDisplay:10.37,2013-07-31 19:03:00,
2013-07-31 20:08:00,58.6,52.5,29.30,NNE,22,1.2,1.2,80,0.00,CLR,,0.02,WeatherDisplay:10.37,2013-07-31 19:08:00,
2013-07-31 20:13:00,58.6,52.5,29.30,North,0,0.0,0.0,80,0.00,CLR,,0.02,WeatherDisplay:10.37,2013-07-31 19:13:00,
2013-07-31 20:18:00,58.6,52.8,29.30,ENE,68,1.2,1.2,81,0.00,CLR,,0.02,WeatherDisplay:10.37,2013-07-31 19:18:00,
2013-07-31 20:23:00,58.6,52.8,29.29,NE,45,3.5,3.5,81,0.00,CLR,,0.02,WeatherDisplay:10.37,2013-07-31 19:23:00,
2013-07-31 20:28:00,58.6,52.8,29.29,NNE,22,3.5,3.5,81,0.00,CLR,,0.02,WeatherDisplay:10.37,2013-07-31 19:28:00,
2013-07-31 20:33:00,58.6,52.8,29.29,NNE,22,2.3,2.3,81,0.00,CLR,,0.02,WeatherDisplay:10.37,2013-07-31 19:33:00,
2013-07-31 20:38:00,58.6,53.2,29.29,NE,45,0.0,0.0,82,0.00,CLR,,0.02,WeatherDisplay:10.37,2013-07-31 19:38:00,
2013-07-31 20:43:00,58.6,53.2,29.28,ENE,68,0.0,1.1,82,0.00,CLR,,0.02,WeatherDisplay:10.37,2013-07-31 19:43:00,
2013-07-31 20:48:00,58.5,53.0,29.28,ENE,68,3.5,3.5,82,0.00,CLR,,0.02,WeatherDisplay:10.37,2013-07-31 19:48:00,
2013-07-31 20:54:00,58.3,53.1,29.28,NE,45,4.6,4.6,83,0.00,CLR,,0.02,WeatherDisplay:10.37,2013-07-31 19:54:00,
2013-07-31 20:59:00,58.1,53.0,29.28,East,90,3.5,3.5,83,0.00,CLR,,0.02,WeatherDisplay:10.37,2013-07-31 19:59:00,
2013-07-31 21:04:00,57.9,52.8,29.28,NNE,22,1.2,1.2,83,0.00,CLR,,0.02,WeatherDisplay:10.37,2013-07-31 20:04:00,
2013-07-31 21:09:00,57.7,52.6,29.28,NNE,22,0.0,3.8,83,0.00,CLR,,0.02,WeatherDisplay:10.37,2013-07-31 20:09:00,
2013-07-31 21:14:00,57.6,52.4,29.28,North,0,4.6,4.6,83,0.02,RA,,0.04,WeatherDisplay:10.37,2013-07-31 20:14:00,
2013-07-31 21:19:00,57.6,52.8,29.28,NE,45,0.0,6.0,84,0.02,RA,,0.04,WeatherDisplay:10.37,2013-07-31 20:19:00,
2013-07-31 21:25:00,57.4,52.6,29.28,NE,45,0.0,3.5,84,0.02,,,0.04,WeatherDisplay:10.37,2013-07-31 20:25:00,
2013-07-31 21:30:00,57.4,52.6,29.28,NE,45,3.5,3.5,84,0.02,CLR,,0.04,WeatherDisplay:10.37,2013-07-31 20:30:00,
2013-07-31 21:35:00,57.4,52.6,29.28,East,90,0.0,2.6,84,0.02,CLR,,0.04,WeatherDisplay:10.37,2013-07-31 20:35:00,
2013-07-31 21:40:00,57.2,52.7,29.28,NNE,22,3.5,3.5,85,0.02,CLR,,0.04,WeatherDisplay:10.37,2013-07-31 20:40:00,
2013-07-31 21:45:00,57.2,52.7,29.28,NNE,22,4.6,4.6,85,0.02,CLR,,0.04,WeatherDisplay:10.37,2013-07-31 20:45:00,
2013-07-31 21:50:00,57.0,52.6,29.28,NE,45,4.6,4.6,85,0.02,CLR,,0.04,WeatherDisplay:10.37,2013-07-31 20:50:00,
2013-07-31 21:55:00,57.0,52.6,29.28,ENE,68,4.6,4.6,85,0.02,CLR,,0.04,WeatherDisplay:10.37,2013-07-31 20:55:00,
2013-07-31 22:00:00,57.0,52.6,29.28,NE,45,3.5,3.5,85,0.02,CLR,,0.04,WeatherDisplay:10.37,2013-07-31 21:00:00,
2013-07-31 22:05:00,56.8,52.4,29.27,NE,45,6.9,6.9,85,0.02,CLR,,0.04,WeatherDisplay:10.37,2013-07-31 21:05:00,
2013-07-31 22:10:00,56.8,52.4,29.27,NNE,22,4.6,4.6,85,0.02,CLR,,0.04,WeatherDisplay:10.37,2013-07-31 21:10:00,
2013-07-31 22:15:00,56.7,52.2,29.27,NE,45,4.6,4.6,85,0.00,CLR,,0.04,WeatherDisplay:10.37,2013-07-31 21:15:00,
2013-07-31 22:20:00,56.5,52.0,29.26,NE,45,3.5,3.5,85,0.00,CLR,,0.04,WeatherDisplay:10.37,2013-07-31 21:20:00,
2013-07-31 22:25:00,56.5,52.3,29.26,North,0,3.8,3.8,86,0.00,CLR,,0.04,WeatherDisplay:10.37,2013-07-31 21:25:00,
2013-07-31 22:30:00,56.3,52.2,29.26,NE,45,3.5,3.5,86,0.00,CLR,,0.04,WeatherDisplay:10.37,2013-07-31 21:30:00,
2013-07-31 22:35:00,56.3,52.2,29.26,NNE,22,4.9,4.9,86,0.00,CLR,,0.04,WeatherDisplay:10.37,2013-07-31 21:35:00,
2013-07-31 22:40:00,56.1,52.0,29.26,NE,45,4.6,4.6,86,0.02,RA,,0.06,WeatherDisplay:10.37,2013-07-31 21:40:00,
2013-07-31 22:45:00,56.1,52.3,29.26,NE,45,4.6,4.6,87,0.02,RA,,0.06,WeatherDisplay:10.37,2013-07-31 21:45:00,
2013-07-31 22:50:00,55.9,52.1,29.25,North,0,4.6,4.6,87,0.02,CLR,,0.06,WeatherDisplay:10.37,2013-07-31 21:50:00,
2013-07-31 22:55:00,55.9,52.1,29.25,NE,45,4.9,4.9,87,0.02,CLR,,0.06,WeatherDisplay:10.37,2013-07-31 21:55:00,
2013-07-31 23:00:00,55.9,52.1,29.25,East,90,3.5,3.5,87,0.02,CLR,,0.06,WeatherDisplay:10.37,2013-07-31 22:00:00,
2013-07-31 23:05:00,55.9,52.1,29.25,NNE,22,9.2,9.2,87,0.02,CLR,,0.06,WeatherDisplay:10.37,2013-07-31 22:05:00,
2013-07-31 23:10:00,55.9,52.1,29.25,NNE,22,9.2,9.2,87,0.02,CLR,,0.06,WeatherDisplay:10.37,2013-07-31 22:10:00,
2013-07-31 23:15:00,55.9,52.4,29.25,NE,45,5.8,5.8,88,0.02,CLR,,0.06,WeatherDisplay:10.37,2013-07-31 22:15:00,
2013-07-31 23:20:00,55.9,52.4,29.25,NNE,22,4.6,4.6,88,0.02,CLR,,0.06,WeatherDisplay:10.37,2013-07-31 22:20:00,
2013-07-31 23:25:00,55.8,52.3,29.25,NE,45,4.6,6.9,88,0.06,RA,,0.10,WeatherDisplay:10.37,2013-07-31 22:25:00,
2013-07-31 23:30:00,55.8,52.3,29.24,ESE,112,3.5,3.5,88,0.06,RA,,0.10,WeatherDisplay:10.37,2013-07-31 22:30:00,
2013-07-31 23:35:00,55.8,52.3,29.24,NE,45,3.5,3.5,88,0.06,,,0.10,WeatherDisplay:10.37,2013-07-31 22:35:00,
2013-07-31 23:40:00,55.8,52.3,29.25,NE,45,4.6,4.6,88,0.06,RA,,0.12,WeatherDisplay:10.37,2013-07-31 22:40:00,
2013-07-31 23:45:00,55.6,52.1,29.25,NNE,22,5.1,5.1,88,0.06,RA,,0.12,WeatherDisplay:10.37,2013-07-31 22:45:00,
2013-07-31 23:50:00,55.6,52.4,29.24,NE,45,3.5,3.7,89,0.08,RA,,0.14,WeatherDisplay:10.37,2013-07-31 22:50:00,
2013-07-31 23:55:00,55.6,52.4,29.24,NNE,22,8.1,8.1,89,0.08,RA,,0.14,WeatherDisplay:10.37,2013-07-31 22:55:00,